Monroeton, Pennsylvania
Current Conditions -  °F | °C
As of 3:53 PM on Tuesday 25 Nov 2014 (Local Time) from KELM Reporting Station
Clear Clear  
Wind Chill: 44°   Ceiling: Unl
Heat Index: 49°   Visibility: 10mi
Dew Point: 25°   Wind: 14mph
Humidity: 39%   Direction: 230°SW
Pressure: 29.94"   Gusts: NA
Location:  41.71°N, 76.47°W
Report Text: KELM 252053Z 23012KT 10SM CLR 09/M04 A2994 RMK AO2 SLP143 T00941039 53002
Loading
Personal Weather Stations






























Interactive Weather Map New forecast layout! Learn more

10-Day Weather Forecast

Advertisements
Track Severe Weather on mobile